• Join FlightAware (Why Join?)
  • Login
  • US Flag 
02:04PM EDT


 

Airport Tracker/Info


-or-


 

Live Flight TrackerFlight Track Log ✈ TRS265 ✈ 19-Aug-2013 ✈ KBWI - KMEM

Flight Track Log - Related Links

Times and Time Zones

All times are in EDT time to prevent confusion due to time zone crossing. See the TRS265 flight status page for this flight to view local times or setup timezone preferences in your user account.

Time Position Orientation Groundspeed Altitude Reporting Facility
EDT Latitude Longitude Course Direction KTS MPH feet Rate Location/Type
05:01PM 39.1790 -76.7500 275° West 221 254 2,300  Level FlightAware
05:02PM 39.1925 -76.8317 275° West 243 280 5,500 3,600 Climbing Washington Center
05:03PM 39.2103 -76.9228 284° West 257 296 9,300 2,820 Climbing Washington Center
05:09PM 39.0030 -77.5600 284° West 400 460 24,100 2,580 Climbing FlightAware
05:09PM 38.9860 -77.6330 253° West 403 464 25,300 2,100 Climbing FlightAware
05:10PM 38.9670 -77.7200 254° West 404 465 26,600 1,320 Climbing FlightAware
05:10PM 38.9470 -77.8040 253° West 409 471 27,000 780 Climbing FlightAware
05:11PM 38.9280 -77.8880 254° West 412 474 27,600 1,560 Climbing FlightAware
05:12PM 38.9110 -77.9620 254° West 408 470 28,800 2,100 Climbing FlightAware
05:12PM 38.8920 -78.0450 254° West 402 463 30,000 960 Climbing FlightAware
05:13PM 38.8710 -78.1330 253° West 402 463 30,000  Level FlightAware
05:13PM 38.8570 -78.2060 256° West 402 463 30,000  Level FlightAware
05:14PM 38.8530 -78.2910 267° West 405 466 30,000  Level FlightAware
05:14PM 38.8530 -78.3760 270° West 407 468 30,000  Level FlightAware
05:15PM 38.8520 -78.4560 269° West 407 468 30,000 420 Level FlightAware
05:16PM 38.8500 -78.5420 268° West 410 472 30,500 1,680 Climbing FlightAware
05:16PM 38.8490 -78.6250 269° West 398 458 32,000 2,100 Climbing FlightAware
05:17PM 38.8480 -78.7130 269° West 389 448 33,000 1,500 Climbing FlightAware
05:17PM 38.8470 -78.7720 269° West 386 444 33,600 1,620 Climbing FlightAware
05:18PM 38.8460 -78.8650 269° West 380 437 34,900 1,740 Climbing FlightAware
05:19PM 38.8440 -78.9520 268° West 375 432 35,900 1,500 Climbing FlightAware
05:19PM 38.8430 -79.0220 269° West 372 428 36,700 1,380 Climbing FlightAware
05:20PM 38.8420 -79.0920 269° West 370 426 37,400 1,260 Climbing FlightAware
05:20PM 38.8410 -79.1660 269° West 368 423 38,100 1,020 Climbing FlightAware
05:21PM 38.8310 -79.2500 261° West 363 418 38,700 660 Climbing FlightAware
05:21PM 38.8170 -79.3270 257° West 367 422 39,000 240 Climbing FlightAware
05:22PM 38.8050 -79.3950 257° West 368 423 39,000  Level FlightAware
05:23PM 38.7910 -79.4720 257° West 368 423 39,000  Level FlightAware
05:23PM 38.7770 -79.5480 257° West 369 425 39,000  Level FlightAware
05:24PM 38.7630 -79.6230 257° West 369 425 39,000  Level FlightAware
05:24PM 38.7520 -79.6870 258° West 368 423 39,000  Level FlightAware
05:25PM 38.7380 -79.7610 256° West 368 423 39,000  Level FlightAware
05:25PM 38.7250 -79.8330 257° West 368 423 39,000  Level FlightAware
05:26PM 38.7110 -79.9110 257° West 370 426 39,000 360 Level FlightAware
05:27PM 38.6960 -79.9890 256° West 371 427 39,500 720 Climbing FlightAware
05:27PM 38.6830 -80.0580 256° West 370 426 39,900 360 Climbing FlightAware
05:28PM 38.6670 -80.1430 256° West 372 428 40,000 60 Climbing FlightAware
05:28PM 38.6530 -80.2170 256° West 373 429 40,000  Level FlightAware
05:29PM 38.6390 -80.2950 257° West 373 429 40,000  Level FlightAware
05:30PM 38.6260 -80.3620 256° West 374 430 40,000  Level FlightAware
05:30PM 38.6100 -80.4450 256° West 375 432 40,000  Level FlightAware
05:31PM 38.5970 -80.5140 256° West 374 430 40,000  Level FlightAware
05:31PM 38.5820 -80.5910 256° West 374 430 40,000  Level FlightAware
05:32PM 38.5690 -80.6610 257° West 375 432 40,000  Level FlightAware
05:33PM 38.5540 -80.7370 256° West 374 430 40,000  Level FlightAware
05:33PM 38.5390 -80.8170 257° West 374 430 40,000  Level FlightAware
05:34PM 38.5240 -80.8930 256° West 375 432 40,000  Level FlightAware
05:34PM 38.5110 -80.9610 256° West 374 430 40,000  Level FlightAware
05:35PM 38.4940 -81.0450 256° West 375 432 40,000  Level FlightAware
05:35PM 38.4810 -81.1130 256° West 376 433 40,000  Level FlightAware
05:36PM 38.4650 -81.1940 256° West 377 434 40,000  Level FlightAware
05:37PM 38.4510 -81.2650 256° West 377 434 40,000  Level FlightAware
05:37PM 38.4360 -81.3420 256° West 379 436 40,000  Level FlightAware
05:38PM 38.4190 -81.4240 255° West 380 437 40,000  Level FlightAware
05:38PM 38.4060 -81.4910 256° West 381 438 40,000  Level FlightAware
05:39PM 38.3900 -81.5710 256° West 381 438 40,000  Level FlightAware
05:40PM 38.3750 -81.6470 256° West 383 441 40,000  Level FlightAware
05:40PM 38.3590 -81.7250 255° West 384 442 40,000  Level FlightAware
05:41PM 38.3410 -81.7990 253° West 385 443 40,000  Level FlightAware
05:41PM 38.3240 -81.8610 251° West 385 443 40,000  Level FlightAware
05:42PM 38.3000 -81.9490 251° West 385 443 40,000  Level FlightAware
05:42PM 38.2810 -82.0170 250° West 385 443 40,000  Level FlightAware
05:43PM 38.2570 -82.1000 250° West 386 444 40,000  Level FlightAware
05:44PM 38.2350 -82.1780 250° West 388 447 40,000  Level FlightAware
05:44PM 38.2160 -82.2460 250° West 388 447 40,000  Level FlightAware
05:45PM 38.1940 -82.3230 250° West 390 449 40,000  Level FlightAware
05:45PM 38.1730 -82.3970 250° West 390 449 40,000  Level FlightAware
05:46PM 38.1520 -82.4690 250° West 391 450 40,000  Level FlightAware
05:47PM 38.1290 -82.5500 250° West 392 451 40,000  Level FlightAware
05:47PM 38.1090 -82.6190 250° West 393 452 40,000  Level FlightAware
05:48PM 38.0860 -82.6990 250° West 393 452 40,000  Level FlightAware
05:48PM 38.0640 -82.7770 250° West 395 455 40,000  Level FlightAware
05:49PM 38.0410 -82.8550 249° West 395 455 40,000  Level FlightAware
05:49PM 38.0190 -82.9320 250° West 396 456 40,000  Level FlightAware
05:50PM 37.9990 -82.9990 249° West 395 455 40,000  Level FlightAware
05:51PM 37.9740 -83.0860 250° West 396 456 40,000  Level FlightAware
05:51PM 37.9530 -83.1560 249° West 396 456 40,000  Level FlightAware
05:52PM 37.9300 -83.2330 249° West 396 456 40,000  Level FlightAware
05:52PM 37.9100 -83.3030 250° West 395 455 40,000  Level FlightAware
05:53PM 37.8880 -83.3780 250° West 396 456 40,000  Level FlightAware
05:54PM 37.8620 -83.4630 249° West 397 457 40,000  Level FlightAware
05:54PM 37.8390 -83.5430 250° West 396 456 40,000  Level FlightAware
05:55PM 37.8200 -83.6070 249° West 397 457 40,000  Level FlightAware
05:55PM 37.7960 -83.6860 249° West 397 457 40,000  Level FlightAware
05:56PM 37.7730 -83.7620 249° West 397 457 40,000  Level FlightAware
05:56PM 37.7500 -83.8410 250° West 397 457 40,000  Level FlightAware
05:57PM 37.7250 -83.9230 249° West 398 458 40,000  Level FlightAware
05:58PM 37.7040 -83.9920 249° West 399 459 40,000  Level FlightAware
05:58PM 37.6800 -84.0720 249° West 398 458 40,000  Level FlightAware
05:59PM 37.6570 -84.1470 249° West 397 457 40,000  Level FlightAware
05:59PM 37.6360 -84.2150 249° West 397 457 40,000  Level FlightAware
06:00PM 37.6120 -84.2940 249° West 397 457 40,000  Level FlightAware
06:01PM 37.5870 -84.3740 248° West 398 458 40,000  Level FlightAware
06:01PM 37.5680 -84.4380 249° West 398 458 40,000  Level FlightAware
06:02PM 37.5410 -84.5240 248° West 397 457 40,000  Level FlightAware
06:02PM 37.5180 -84.6000 249° West 397 457 40,000  Level FlightAware
06:03PM 37.4920 -84.6830 248° West 397 457 40,000  Level FlightAware
06:04PM 37.4640 -84.7720 248° West 397 457 40,000  Level FlightAware
06:04PM 37.4340 -84.8690 249° West 397 457 40,000  Level FlightAware
06:05PM 37.4120 -84.9390 248° West 397 457 40,000  Level FlightAware
06:06PM 37.3870 -85.0190 249° West 397 457 40,000  Level FlightAware
06:06PM 37.3660 -85.0880 249° West 398 458 40,000  Level FlightAware
06:07PM 37.3390 -85.1740 248° West 398 458 40,000  Level FlightAware
06:07PM 37.3150 -85.2480 248° West 399 459 40,000  Level FlightAware
06:08PM 37.2930 -85.3170 248° West 399 459 40,000  Level FlightAware
06:09PM 37.2650 -85.4070 249° West 400 460 40,000  Level FlightAware
06:09PM 37.2400 -85.4850 248° West 400 460 40,000  Level FlightAware
06:10PM 37.2130 -85.5670 248° West 402 463 40,000  Level FlightAware
06:10PM 37.1920 -85.6360 249° West 402 463 40,000  Level FlightAware
06:11PM 37.1650 -85.7170 247° West 404 465 40,000  Level FlightAware
06:12PM 37.1380 -85.8030 249° West 405 466 40,000  Level FlightAware
06:12PM 37.1120 -85.8820 248° West 406 467 40,000  Level FlightAware
06:13PM 37.0890 -85.9550 248° West 406 467 40,000  Level FlightAware
06:13PM 37.0630 -86.0330 247° West 407 468 40,000  Level FlightAware
06:14PM 37.0400 -86.1030 248° West 408 470 40,000  Level FlightAware
06:14PM 37.0190 -86.1700 249° West 409 471 40,000  Level FlightAware
06:15PM 36.9940 -86.2450 247° West 409 471 40,000  Level FlightAware
06:16PM 36.9650 -86.3350 248° West 410 472 40,000  Level FlightAware
06:16PM 36.9370 -86.4180 247° West 412 474 40,000  Level FlightAware
06:17PM 36.9120 -86.4920 247° West 411 473 40,000  Level FlightAware
06:17PM 36.8850 -86.5660 245° Southwest 412 474 40,000  Level FlightAware
06:18PM 36.8570 -86.6440 246° West 411 473 40,000  Level FlightAware
06:19PM 36.8290 -86.7210 246° West 410 472 40,000  Level FlightAware
06:19PM 36.8040 -86.7910 246° West 408 470 40,000  Level FlightAware
06:20PM 36.7760 -86.8670 245° Southwest 408 470 40,000  Level FlightAware
06:20PM 36.7480 -86.9440 246° West 407 468 40,000  Level FlightAware
06:21PM 36.7230 -87.0130 246° West 406 467 40,000  Level FlightAware
06:22PM 36.6960 -87.0890 246° West 405 466 40,000  Level FlightAware
06:22PM 36.6680 -87.1640 245° Southwest 403 464 40,000  Level FlightAware
06:23PM 36.6410 -87.2360 245° Southwest 403 464 40,000  Level FlightAware
06:23PM 36.6130 -87.3130 246° West 404 465 40,000  Level FlightAware
06:24PM 36.5860 -87.3880 246° West 404 465 40,000  Level FlightAware
06:25PM 36.5570 -87.4650 245° Southwest 405 466 40,000  Level FlightAware
06:25PM 36.5320 -87.5320 245° Southwest 406 467 40,000  Level FlightAware
06:26PM 36.5040 -87.6080 245° Southwest 407 468 40,000  Level FlightAware
06:26PM 36.4790 -87.6750 245° Southwest 408 470 40,000  Level FlightAware
06:27PM 36.4460 -87.7630 245° Southwest 411 473 40,000  Level FlightAware
06:27PM 36.4210 -87.8310 245° Southwest 412 474 40,000  Level FlightAware
06:28PM 36.3920 -87.9070 245° Southwest 412 474 40,000  Level FlightAware
06:29PM 36.3630 -87.9870 246° West 413 475 40,000  Level FlightAware
06:29PM 36.3380 -88.0530 245° Southwest 413 475 40,000  Level FlightAware
06:30PM 36.3080 -88.1330 245° Southwest 413 475 40,000  Level FlightAware
06:30PM 36.2750 -88.2200 245° Southwest 414 476 40,000  Level FlightAware
06:31PM 36.2520 -88.2800 245° Southwest 414 476 40,000  Level FlightAware
06:32PM 36.2270 -88.3460 245° Southwest 414 476 40,000  Level FlightAware
06:32PM 36.2020 -88.4120 245° Southwest 414 476 40,000  Level FlightAware
06:33PM 36.1780 -88.4770 245° Southwest 414 476 40,000  Level FlightAware
06:33PM 36.1520 -88.5450 245° Southwest 414 476 40,000  Level FlightAware
06:34PM 36.1270 -88.6130 246° West 414 476 40,000  Level FlightAware
06:35PM 36.1020 -88.6780 245° Southwest 414 476 40,000  Level FlightAware
06:35PM 36.0770 -88.7440 245° Southwest 414 476 40,000  Level FlightAware
06:36PM 36.0520 -88.8100 245° Southwest 414 476 40,000  Level FlightAware
06:36PM 36.0270 -88.8770 245° Southwest 414 476 40,000  Level FlightAware
06:37PM 36.0040 -88.9390 245° Southwest 414 476 40,000  Level FlightAware
06:38PM 35.9790 -89.0050 245° Southwest 414 476 40,000  Level FlightAware
06:38PM 35.9540 -89.0710 245° Southwest 414 476 40,000  Level FlightAware
06:39PM 35.9290 -89.1380 245° Southwest 414 476 40,000  Level FlightAware
06:39PM 35.9040 -89.2040 245° Southwest 414 476 40,000  Level FlightAware
06:40PM 35.8800 -89.2670 245° Southwest 414 476 40,000  Level FlightAware
06:41PM 35.7639 -89.5306 245° Southwest 423 487 40,000  Level Memphis Center
06:42PM 35.7125 -89.6564 243° Southwest 423 487 40,000  Level Memphis Center
06:43PM 35.6653 -89.7947 247° West 418 481 40,000  Level Memphis Center
06:44PM 35.6156 -89.9228 244° Southwest 418 481 40,000  Level Memphis Center
06:45PM 35.5639 -90.0533 244° Southwest 423 487 40,000  Level Memphis Center
06:46PM 35.5119 -90.1836 244° Southwest 423 487 40,000  Level Memphis Center
06:47PM 35.4600 -90.3111 243° Southwest 418 481 40,000  Level Memphis Center
06:48PM 35.4078 -90.4411 244° Southwest 423 487 40,000  Level Memphis Center
06:49PM 35.3556 -90.5708 244° Southwest 423 487 40,000  Level Memphis Center
06:54PM 35.0580 -91.2790 244° Southwest 423 487 40,000  Level FlightAware
06:55PM 35.0300 -91.3460 243° Southwest 423 487 40,000  Level FlightAware
06:55PM 35.0030 -91.4110 243° Southwest 423 487 40,000  Level FlightAware
06:56PM 34.9640 -91.5040 243° Southwest 424 488 40,000  Level FlightAware
06:57PM 34.9340 -91.5740 242° Southwest 424 488 40,000  Level FlightAware
06:57PM 34.9060 -91.6390 242° Southwest 424 488 40,000  Level FlightAware
06:58PM 34.8770 -91.7030 241° Southwest 424 488 40,000  Level FlightAware
06:58PM 34.8490 -91.7680 242° Southwest 424 488 40,000  Level FlightAware
06:59PM 34.8210 -91.8320 242° Southwest 424 488 40,000  Level FlightAware
07:00PM 34.7930 -91.8970 242° Southwest 424 488 40,000  Level FlightAware
07:00PM 34.7650 -91.9610 242° Southwest 424 488 40,000  Level FlightAware
07:01PM 34.7380 -92.0220 242° Southwest 424 488 40,000  Level FlightAware
07:01PM 34.7100 -92.0870 242° Southwest 424 488 40,000  Level FlightAware
07:02PM 34.6820 -92.1510 242° Southwest 424 488 40,000  Level FlightAware
07:03PM 34.6550 -92.2120 242° Southwest 424 488 40,000  Level FlightAware
07:03PM 34.6260 -92.2780 242° Southwest 424 488 40,000  Level FlightAware
07:04PM 34.5980 -92.3430 242° Southwest 424 488 40,000  Level FlightAware
07:04PM 34.5700 -92.4070 242° Southwest 424 488 40,000  Level FlightAware
07:05PM 34.5410 -92.4710 241° Southwest 424 488 40,000  Level FlightAware
07:06PM 34.5130 -92.5360 242° Southwest 424 488 40,000 -720 Level FlightAware
07:07PM 34.5853 -92.7839 242° Southwest 355 409 38,800 -1,020 Descending Memphis Center
07:08PM 34.6950 -92.7214 25° Northeast 315 362 37,900 -1,260 Descending Memphis Center
07:09PM 34.7850 -92.6000 48° Northeast 357 411 36,300 1,020 Descending Memphis Center
07:10PM 34.8664 -92.4731 52° Northeast 422 486 40,000 -2,400 Climbing Memphis Center
07:11PM 34.8836 -92.3164 82° East 422 486 31,500 -6,120 Descending Memphis Center
07:12PM 34.8944 -92.1547 85° East 444 511 27,800 -3,660 Descending Memphis Center
07:13PM 34.9050 -91.9928 85° East 461 531 24,200 -2,160 Descending Memphis Center
07:14PM 34.9153 -91.8336 85° East 468 539 23,500 -900 Descending Memphis Center
07:15PM 34.9253 -91.6817 85° East 462 532 22,500 -1,080 Descending Memphis Center
07:16PM 34.9331 -91.5350 86° East 446 513 21,400 -960 Descending Memphis Center
07:17PM 34.9425 -91.4008 85° East 441 507 20,600 -900 Descending Memphis Center
07:18PM 34.9522 -91.2389 86° East 441 507 19,600 -1,500 Descending Memphis Center
07:19PM 34.9594 -91.0944 86° East 441 507 17,600 -2,580 Descending Memphis Center
07:20PM 34.9664 -90.9525 87° East 421 484 14,500 -2,580 Descending Memphis Center
07:21PM 34.9606 -90.8208 93° East 405 466 12,500 -1,680 Descending Memphis Center
07:22PM 34.9506 -90.7092 96° East 361 415 11,200 -1,440 Descending Memphis Center
07:23PM 34.9403 -90.6053 97° East 321 369 9,700 -1,500 Descending Memphis Center
07:24PM 34.9342 -90.5117 95° East 287 330 8,300 -1,380 Descending Memphis Center
07:25PM 34.9261 -90.4153 96° East 282 325 7,000 -1,200 Descending Memphis Center
07:26PM 34.9092 -90.3242 103° East 276 318 6,000 -960 Descending Memphis Center
07:27PM 34.8906 -90.2458 106° East 276 318 5,100 -1,500 Descending Memphis Center
07:28PM 34.8819 -90.1622 97° East 266 306 3,100 -1,560 Descending Memphis Center
07:29PM 34.8797 -90.0786 92° East 249 287 2,000 -600 Descending Memphis Center
07:30PM 34.8900 -90.0178 78° East 211 243 2,000 -60 Level Memphis Center
07:31PM 34.9358 -89.9897 27° Northeast 172 198 1,900 -420 Descending Memphis Center
07:32PM 34.9775 -89.9897 360° North 149 171 1,200 -720 Descending Memphis Center
07:33PM 35.0172 -89.9894 360° North 137 158 500 -720 Descending Memphis Center
07:35PM 35.0333 -89.9667 26° Northeast  Level FlightAware Approximate
07:42PM 35.0424 -89.9767 26° Northeast  Level Estimated
07:43PM 35.0424 -89.9767 26° Northeast  Level Estimated
07:44PM 35.0424 -89.9767 26° Northeast  Level Estimated
07:45PM 35.0424 -89.9767 26° Northeast  Level Estimated
07:46PM 35.0424 -89.9767 26° Northeast  Level Estimated
07:47PM 35.0424 -89.9767 26° Northeast  Level Estimated
07:48PM 35.0424 -89.9767 26° Northeast  Level Estimated